| time (UTC) | temp F | wind direction | speed MPH | gust MPH | rain 1hr in | rain 24hr in | rain mn in | humidity % | barometer mb |
| 20260510170011 | 65 | 245 | 4.0 | 8.0 | 0.00 | 0.00 | 0.00 | 75 | 1011.3 |
| 20260510165011 | 66 | 205 | 5.0 | 11.0 | 0.00 | 0.00 | 0.00 | 74 | 1011.3 |
| 20260510164011 | 66 | 229 | 5.0 | 11.0 | 0.00 | 0.00 | 0.00 | 71 | 1011.1 |
| 20260510162010 | 66 | 233 | 6.0 | 12.0 | 0.00 | 0.00 | 0.00 | 72 | 1011.4 |
| 20260510161012 | 66 | 203 | 7.0 | 16.0 | 0.00 | 0.00 | 0.00 | 71 | 1011.4 |
| 20260510160013 | 68 | 200 | 7.0 | 14.0 | 0.00 | 0.01 | 0.00 | 64 | 1011.4 |
| 20260510155011 | 69 | 201 | 7.0 | 13.0 | 0.00 | 0.02 | 0.00 | 60 | 1011.2 |
| 20260510154010 | 69 | 195 | 4.0 | 9.0 | 0.00 | 0.02 | 0.00 | 61 | 1011.0 |
| 20260510153011 | 69 | 203 | 5.0 | 11.0 | 0.00 | 0.05 | 0.00 | 61 | 1011.1 |
| 20260510152012 | 69 | 204 | 6.0 | 11.0 | 0.00 | 0.09 | 0.00 | 61 | 1011.2 |
| 20260510151013 | 69 | 189 | 10.0 | 15.0 | 0.00 | 0.14 | 0.00 | 57 | 1011.5 |
| 20260510150013 | 69 | 193 | 8.0 | 14.0 | 0.00 | 0.20 | 0.00 | 59 | 1011.5 |
| 20260510144011 | 69 | 219 | 8.0 | 13.0 | 0.00 | 0.23 | 0.00 | 59 | 1011.8 |
| 20260510143010 | 69 | 226 | 7.0 | 14.0 | 0.00 | 0.25 | 0.00 | 62 | 1011.8 |
| 20260510142010 | 69 | 214 | 7.0 | 14.0 | 0.00 | 0.26 | 0.00 | 62 | 1011.9 |
| 20260510141011 | 68 | 214 | 8.0 | 14.0 | 0.00 | 0.26 | 0.00 | 64 | 1011.9 |
| 20260510140013 | 69 | 187 | 8.0 | 15.0 | 0.00 | 0.26 | 0.00 | 62 | 1012.0 |
| 20260510135010 | 69 | 191 | 8.0 | 15.0 | 0.00 | 0.26 | 0.00 | 60 | 1012.2 |
| 20260510132010 | 69 | 194 | 9.0 | 16.0 | 0.00 | 0.27 | 0.00 | 61 | 1012.5 |
| 20260510125010 | 69 | 212 | 7.0 | 15.0 | 0.00 | 0.28 | 0.00 | 63 | 1012.5 |
| 20260510124010 | 69 | 210 | 8.0 | 15.0 | 0.00 | 0.28 | 0.00 | 62 | 1012.5 |
| 20260510123010 | 69 | 194 | 9.0 | 17.0 | 0.00 | 0.28 | 0.00 | 62 | 1012.6 |
| 20260510122011 | 69 | 212 | 9.0 | 15.0 | 0.00 | 0.28 | 0.00 | 64 | 1012.7 |
| 20260510121012 | 69 | 195 | 9.0 | 18.0 | 0.00 | 0.28 | 0.00 | 63 | 1012.8 |
| 20260510120011 | 69 | 191 | 8.0 | 18.0 | 0.00 | 0.28 | 0.00 | 62 | 1012.9 |
| 20260510115010 | 68 | 197 | 8.0 | 16.0 | 0.00 | 0.28 | 0.00 | 64 | 1013.0 |
| 20260510114012 | 68 | 192 | 10.0 | 17.0 | 0.00 | 0.28 | 0.00 | 67 | 1013.0 |
| 20260510111010 | 67 | 210 | 8.0 | 14.0 | 0.00 | 0.28 | 0.00 | 69 | 1013.3 |
| 20260510110011 | 67 | 196 | 9.0 | 16.0 | 0.00 | 0.28 | 0.00 | 71 | 1013.2 |
| 20260510105010 | 67 | 201 | 8.0 | 16.0 | 0.00 | 0.28 | 0.00 | 72 | 1013.4 |
| 20260510104013 | 67 | 193 | 10.0 | 19.0 | 0.00 | 0.28 | 0.00 | 71 | 1013.5 |
| 20260510103010 | 67 | 196 | 8.0 | 14.0 | 0.00 | 0.28 | 0.00 | 73 | 1013.5 |
| 20260510102011 | 66 | 197 | 9.0 | 17.0 | 0.00 | 0.28 | 0.00 | 72 | 1013.6 |
| 20260510095013 | 66 | 196 | 8.0 | 16.0 | 0.00 | 0.28 | 0.00 | 74 | 1013.6 |
| 20260510094011 | 66 | 183 | 7.0 | 13.0 | 0.00 | 0.28 | 0.00 | 74 | 1013.6 |
| 20260510093012 | 65 | 176 | 6.0 | 13.0 | 0.00 | 0.28 | 0.00 | 74 | 1013.6 |
| 20260510092013 | 65 | 204 | 7.0 | 12.0 | 0.00 | 0.28 | 0.00 | 74 | 1013.6 |
| 20260510091011 | 64 | 192 | 4.0 | 11.0 | 0.00 | 0.28 | 0.00 | 75 | 1013.6 |
| 20260510090012 | 64 | 213 | 5.0 | 9.0 | 0.00 | 0.28 | 0.00 | 76 | 1013.7 |
| 20260510085013 | 64 | 204 | 4.0 | 9.0 | 0.00 | 0.28 | 0.00 | 77 | 1013.6 |
| 20260510084012 | 62 | 234 | 3.0 | 9.0 | 0.00 | 0.28 | 0.00 | 77 | 1013.8 |
| 20260510083012 | 62 | 198 | 6.0 | 11.0 | 0.00 | 0.28 | 0.00 | 77 | 1013.8 |
| 20260510082013 | 61 | 215 | 5.0 | 10.0 | 0.00 | 0.28 | 0.00 | 79 | 1013.6 |
| 20260510080015 | 61 | 213 | 7.0 | 11.0 | 0.00 | 0.28 | 0.00 | 79 | 1013.7 |
| 20260510075011 | 61 | 234 | 5.0 | 11.0 | 0.00 | 0.28 | 0.00 | 79 | 1013.8 |
| 20260510073011 | 60 | 239 | 6.0 | 12.0 | 0.00 | 0.28 | 0.00 | 79 | 1013.6 |
| 20260510072014 | 59 | 240 | 5.0 | 10.0 | 0.00 | 0.28 | 0.00 | 80 | 1013.5 |
| 20260510071014 | 59 | 237 | 4.0 | 9.0 | 0.00 | 0.28 | 0.00 | 80 | 1013.4 |
| 20260510070012 | 59 | 244 | 3.0 | 7.0 | 0.00 | 0.28 | 0.00 | 80 | 1013.4 |
| 20260510065012 | 59 | 275 | 3.0 | 7.0 | 0.00 | 0.28 | 0.00 | 81 | 1013.2 |
| 20260510064013 | 58 | 267 | 3.0 | 9.0 | 0.00 | 0.28 | 0.00 | 81 | 1013.2 |
| 20260510063012 | 58 | 252 | 3.0 | 6.0 | 0.00 | 0.28 | 0.00 | 82 | 1013.4 |
| 20260510062011 | 58 | 274 | 2.0 | 7.0 | 0.00 | 0.28 | 0.00 | 82 | 1013.3 |
| 20260510061009 | 57 | 285 | 3.0 | 7.0 | 0.00 | 0.28 | 0.00 | 83 | 1013.2 |
| 20260510060013 | 57 | 279 | 3.0 | 7.0 | 0.00 | 0.28 | 0.00 | 84 | 1013.3 |
| 20260510055009 | 56 | 271 | 3.0 | 6.0 | 0.00 | 0.28 | 0.00 | 86 | 1013.3 |
| 20260510054012 | 56 | 301 | 3.0 | 4.0 | 0.00 | 0.28 | 0.00 | 87 | 1013.2 |
| 20260510053010 | 55 | 298 | 2.0 | 4.0 | 0.00 | 0.28 | 0.00 | 87 | 1013.2 |
| 20260510052011 | 54 | 298 | 2.0 | 4.0 | 0.00 | 0.28 | 0.00 | 87 | 1013.2 |
| 20260510051014 | 55 | 297 | 1.0 | 3.0 | 0.00 | 0.28 | 0.00 | 87 | 1013.1 |
| 20260510050012 | 55 | 298 | 2.0 | 4.0 | 0.00 | 0.28 | 0.00 | 87 | 1013.0 |
| 20260510044009 | 55 | 298 | 2.0 | 6.0 | 0.00 | 0.28 | 0.00 | 87 | 1013.0 |
| 20260510043011 | 56 | 298 | 2.0 | 4.0 | 0.00 | 0.28 | 0.00 | 87 | 1013.0 |
| 20260510042010 | 56 | 297 | 2.0 | 3.0 | 0.00 | 0.28 | 0.00 | 87 | 1013.0 |
| 20260510041012 | 56 | 298 | 2.0 | 4.0 | 0.00 | 0.28 | 0.00 | 87 | 1013.1 |
| 20260510040012 | 56 | 297 | 2.0 | 3.0 | 0.00 | 0.28 | 0.00 | 87 | 1013.1 |
| 20260510035011 | 56 | 297 | 3.0 | 4.0 | 0.00 | 0.28 | 0.00 | 87 | 1013.1 |
| 20260510034010 | 56 | 298 | 2.0 | 4.0 | 0.00 | 0.28 | 0.00 | 87 | 1013.1 |
| 20260510033010 | 56 | 298 | 3.0 | 6.0 | 0.00 | 0.28 | 0.00 | 88 | 1013.1 |
| 20260510032010 | 56 | 295 | 3.0 | 7.0 | 0.00 | 0.28 | 0.00 | 88 | 1013.1 |
| 20260510031010 | 56 | 313 | 3.0 | 4.0 | 0.00 | 0.28 | 0.00 | 88 | 1013.2 |
| 20260510030019 | 56 | 313 | 3.0 | 5.0 | 0.00 | 0.28 | 0.00 | 88 | 1013.2 |
| 20260510025010 | 56 | 313 | 2.0 | 4.0 | 0.00 | 0.28 | 0.00 | 88 | 1013.2 |
| 20260510023010 | 56 | 313 | 3.0 | 4.0 | 0.00 | 0.28 | 0.00 | 88 | 1013.2 |
| 20260510022011 | 56 | 313 | 3.0 | 5.0 | 0.00 | 0.28 | 0.00 | 88 | 1013.3 |
| 20260510021010 | 55 | 313 | 3.0 | 5.0 | 0.00 | 0.28 | 0.00 | 89 | 1013.4 |
| 20260510020012 | 55 | 311 | 3.0 | 7.0 | 0.00 | 0.28 | 0.00 | 88 | 1013.3 |
| 20260510015017 | 55 | 294 | 5.0 | 8.0 | 0.00 | 0.28 | 0.00 | 88 | 1013.5 |
| 20260510014009 | 55 | 298 | 4.0 | 8.0 | 0.00 | 0.28 | 0.00 | 88 | 1013.5 |
| 20260510011017 | 54 | 296 | 5.0 | 7.0 | 0.00 | 0.28 | 0.00 | 88 | 1013.6 |
| 20260510010023 | 53 | 334 | 3.0 | 6.0 | 0.00 | 0.28 | 0.00 | 88 | 1013.7 |
| 20260510005022 | 53 | 340 | 2.0 | 4.0 | 0.00 | 0.28 | 0.00 | 88 | 1013.7 |
| 20260510004021 | 53 | 339 | 3.0 | 5.0 | 0.00 | 0.28 | 0.00 | 88 | 1013.7 |
| 20260510003022 | 53 | 339 | 3.0 | 5.0 | 0.00 | 0.28 | 0.00 | 88 | 1013.6 |
| 20260510002022 | 53 | 339 | 4.0 | 6.0 | 0.00 | 0.28 | 0.00 | 89 | 1013.6 |
| 20260510001023 | 53 | 339 | 4.0 | 6.0 | 0.00 | 0.28 | 0.00 | 89 | 1013.7 |
| 20260510000032 | 53 | 339 | 3.0 | 5.0 | 0.00 | 0.28 | 0.00 | 89 | 1013.7 |
| 20260509235021 | 54 | 339 | 3.0 | 4.0 | 0.00 | 0.28 | 0.28 | 89 | 1013.8 |
| 20260509234022 | 54 | 337 | 3.0 | 6.0 | 0.00 | 0.28 | 0.28 | 89 | 1013.9 |
| 20260509233022 | 54 | 304 | 4.0 | 6.0 | 0.00 | 0.28 | 0.28 | 89 | 1013.9 |
| 20260509232021 | 55 | 323 | 4.0 | 8.0 | 0.00 | 0.28 | 0.28 | 89 | 1014.0 |
| 20260509231021 | 55 | 323 | 5.0 | 9.0 | 0.00 | 0.28 | 0.28 | 90 | 1014.1 |
| 20260509230022 | 55 | 329 | 6.0 | 8.0 | 0.00 | 0.28 | 0.28 | 90 | 1014.1 |
| 20260509225028 | 55 | 331 | 6.0 | 9.0 | 0.00 | 0.28 | 0.28 | 90 | 1014.2 |
| 20260509224022 | 56 | 329 | 4.0 | 8.0 | 0.00 | 0.28 | 0.28 | 90 | 1014.2 |
| 20260509222021 | 56 | 298 | 4.0 | 8.0 | 0.00 | 0.28 | 0.28 | 91 | 1014.8 |
| 20260509221024 | 56 | 287 | 4.0 | 8.0 | 0.00 | 0.28 | 0.28 | 91 | 1014.8 |
| 20260509220020 | 55 | 298 | 4.0 | 7.0 | 0.00 | 0.28 | 0.28 | 91 | 1014.5 |
| 20260509215021 | 56 | 300 | 3.0 | 4.0 | 0.00 | 0.28 | 0.28 | 91 | 1014.4 |
| 20260509214025 | 56 | 273 | 4.0 | 7.0 | 0.00 | 0.28 | 0.28 | 91 | 1014.4 |
| 20260509213021 | 56 | 294 | 3.0 | 6.0 | 0.00 | 0.28 | 0.28 | 91 | 1014.3 |
| 20260509212021 | 56 | 289 | 4.0 | 7.0 | 0.00 | 0.28 | 0.28 | 91 | 1014.2 |
| 20260509210025 | 56 | 288 | 3.0 | 6.0 | 0.00 | 0.28 | 0.28 | 91 | 1014.1 |
| 20260509205021 | 56 | 289 | 3.0 | 7.0 | 0.00 | 0.28 | 0.28 | 91 | 1014.0 |
| 20260509204021 | 57 | 262 | 3.0 | 7.0 | 0.00 | 0.28 | 0.28 | 91 | 1014.0 |
| 20260509203026 | 57 | 255 | 4.0 | 8.0 | 0.00 | 0.28 | 0.28 | 91 | 1014.0 |
| 20260509202021 | 57 | 249 | 4.0 | 6.0 | 0.00 | 0.28 | 0.28 | 90 | 1014.0 |
| 20260509201021 | 57 | 248 | 3.0 | 6.0 | 0.00 | 0.28 | 0.28 | 90 | 1013.7 |
| 20260509200022 | 57 | 252 | 3.0 | 5.0 | 0.00 | 0.28 | 0.28 | 89 | 1013.5 |
| 20260509195022 | 57 | 252 | 3.0 | 5.0 | 0.00 | 0.28 | 0.28 | 89 | 1013.2 |
| 20260509194021 | 57 | 262 | 3.0 | 5.0 | 0.00 | 0.28 | 0.28 | 88 | 1013.1 |
| 20260509193021 | 57 | 251 | 2.0 | 5.0 | 0.00 | 0.28 | 0.28 | 87 | 1012.8 |
| 20260509192023 | 57 | 287 | 2.0 | 4.0 | 0.00 | 0.28 | 0.28 | 86 | 1012.7 |
| 20260509191022 | 58 | 289 | 3.0 | 6.0 | 0.00 | 0.28 | 0.28 | 85 | 1012.4 |
| 20260509190023 | 58 | 244 | 2.0 | 4.0 | 0.00 | 0.28 | 0.28 | 83 | 1012.4 |
| 20260509185021 | 59 | 245 | 1.0 | 3.0 | 0.00 | 0.28 | 0.28 | 82 | 1012.3 |
| 20260509183021 | 60 | 0 | 0.0 | 0.0 | 0.00 | 0.28 | 0.28 | 83 | 1011.9 |
| 20260509182021 | 59 | 98 | 0.0 | 2.0 | 0.00 | 0.28 | 0.28 | 83 | 1011.8 |
| 20260509181024 | 59 | 97 | 1.0 | 5.0 | 0.00 | 0.28 | 0.28 | 85 | 1011.7 |
| 20260509180022 | 58 | 87 | 2.0 | 5.0 | 0.00 | 0.28 | 0.28 | 86 | 1011.5 |
| 20260509175022 | 58 | 63 | 2.0 | 7.0 | 0.00 | 0.28 | 0.28 | 86 | 1011.7 |
| 20260509174021 | 58 | 326 | 2.0 | 4.0 | 0.00 | 0.28 | 0.28 | 88 | 1011.6 |
| 20260509173019 | 58 | 327 | 0.0 | 2.0 | 0.00 | 0.28 | 0.28 | 90 | 1011.6 |
| 20260509172022 | 58 | 23 | 1.0 | 4.0 | 0.00 | 0.28 | 0.28 | 90 | 1011.5 |
| 20260509171021 | 57 | 46 | 3.0 | 9.0 | 0.00 | 0.28 | 0.28 | 90 | 1011.3 |